createdAt,value
2022-09-23T00:04:19.766Z,13
2022-09-23T00:08:02.136Z,12.9
2022-09-23T00:12:21.569Z,13
2022-09-23T00:14:12.762Z,13.1
2022-09-23T00:20:00.239Z,13.1
2022-09-23T00:20:42.985Z,13.1
2022-09-23T00:20:49.764Z,13.1
2022-09-23T00:21:21.950Z,12.7
2022-09-23T00:22:21.198Z,12.7
2022-09-23T00:23:20.917Z,12.9
2022-09-23T00:24:21.750Z,13
2022-09-23T00:25:21.203Z,13.1
2022-09-23T00:27:21.331Z,12.9
2022-09-23T00:28:20.920Z,13
2022-09-23T00:29:20.924Z,13.1
2022-09-23T00:30:21.274Z,13.2
2022-09-23T00:31:21.521Z,13.1
2022-09-23T00:34:20.916Z,13.2
2022-09-23T00:35:20.924Z,13
2022-09-23T00:36:21.234Z,12.9
2022-09-23T00:37:21.063Z,12.9
2022-09-23T00:38:20.920Z,12.7
2022-09-23T00:39:20.932Z,12.9
2022-09-23T00:40:21.647Z,12.7
2022-09-23T00:41:21.252Z,12.8
2022-09-23T00:42:20.921Z,12.9
2022-09-23T00:44:21.429Z,12.3
2022-09-23T00:45:20.931Z,12.5
2022-09-23T00:47:20.941Z,12.7
2022-09-23T00:48:21.024Z,12.9
2022-09-23T00:50:21.695Z,12.8
2022-09-23T00:51:21.638Z,12.8
2022-09-23T00:52:21.330Z,12.8
2022-09-23T00:53:20.926Z,12.6
2022-09-23T00:54:20.931Z,12.8
2022-09-23T00:55:20.930Z,12.9
2022-09-23T00:56:21.517Z,12.7
2022-09-23T00:57:21.488Z,12.6
2022-09-23T00:58:21.492Z,12.6
2022-09-23T00:59:21.549Z,12.8
2022-09-23T01:00:20.929Z,13
2022-09-23T01:01:21.710Z,13
2022-09-23T01:02:21.050Z,12.8
2022-09-23T01:03:20.961Z,12.7
2022-09-23T01:05:24.484Z,13
2022-09-23T01:07:24.477Z,13
2022-09-23T01:09:24.473Z,12.9
2022-09-23T01:10:24.480Z,13
2022-09-23T01:11:24.481Z,13
2022-09-23T01:12:24.477Z,12.9
2022-09-23T01:13:24.477Z,12.9
2022-09-23T01:15:24.482Z,13
2022-09-23T01:17:24.479Z,12.6
2022-09-23T01:18:24.495Z,12.7
2022-09-23T01:19:24.575Z,12.8
2022-09-23T01:38:19.779Z,12.7
2022-09-23T01:42:02.180Z,12.9
2022-09-23T01:46:21.587Z,12.7
2022-09-23T01:48:12.816Z,12.7
2022-09-23T01:53:45.872Z,12.5
2022-09-23T01:53:59.845Z,12.9
2022-09-23T01:54:20.959Z,12.4
2022-09-23T01:55:21.522Z,12.2
2022-09-23T01:56:20.937Z,12.4
2022-09-23T01:57:20.939Z,12.4
2022-09-23T01:58:21.394Z,12.4
2022-09-23T02:00:21.412Z,12.4
2022-09-23T02:01:21.416Z,12.5
2022-09-23T02:02:21.017Z,12.5
2022-09-23T02:03:21.080Z,12.7
2022-09-23T02:04:20.932Z,12.6
2022-09-23T02:05:20.937Z,12.4
2022-09-23T02:06:21.462Z,12.5
2022-09-23T02:08:20.935Z,12.7
2022-09-23T02:09:20.941Z,12.7
2022-09-23T02:10:20.930Z,12.7
2022-09-23T02:11:20.933Z,12.7
2022-09-23T02:12:21.858Z,12.6
2022-09-23T02:13:20.943Z,12.7
2022-09-23T02:14:21.359Z,12.6
2022-09-23T02:15:20.931Z,12.5
2022-09-23T02:16:21.000Z,12.5
2022-09-23T02:17:20.938Z,12.5
2022-09-23T02:18:21.783Z,12.6
2022-09-23T02:19:20.972Z,12.6
2022-09-23T02:21:21.351Z,12.1
2022-09-23T02:23:21.318Z,12.2
2022-09-23T02:24:21.592Z,12.4
2022-09-23T02:25:21.452Z,12.5
2022-09-23T02:26:21.893Z,12.5
2022-09-23T02:27:21.665Z,12.3
2022-09-23T02:28:21.769Z,12.3
2022-09-23T02:29:20.935Z,12.4
2022-09-23T02:30:21.175Z,12.3
2022-09-23T02:31:21.016Z,12.5
2022-09-23T02:33:20.942Z,12.5
2022-09-23T02:34:20.942Z,12.5
2022-09-23T02:35:20.998Z,12.5
2022-09-23T02:36:24.490Z,12.5
2022-09-23T02:37:24.484Z,12.4
2022-09-23T02:38:25.510Z,12.5
2022-09-23T02:39:24.486Z,12.4
2022-09-23T02:42:24.508Z,12.4
2022-09-23T02:43:24.482Z,12.5
2022-09-23T02:44:24.480Z,12.5
2022-09-23T02:46:24.567Z,12.3
2022-09-23T02:47:24.498Z,12.3
2022-09-23T02:48:24.497Z,12.3
2022-09-23T02:50:24.516Z,12
2022-09-23T02:51:24.489Z,12.2
2022-09-23T03:12:20.956Z,12.2
2022-09-23T03:13:22.718Z,12.4
2022-09-23T03:14:21.060Z,12.3
2022-09-23T03:15:20.941Z,12.2
2022-09-23T03:16:21.341Z,12.5
2022-09-23T03:17:21.795Z,12.4
2022-09-23T03:18:21.035Z,12.4
2022-09-23T03:19:21.622Z,12.4
2022-09-23T03:20:20.942Z,12.4
2022-09-23T03:21:20.967Z,12.6
2022-09-23T03:22:20.954Z,12.3
2022-09-23T03:24:21.729Z,12.4
2022-09-23T03:26:21.579Z,12.3
2022-09-23T03:27:20.946Z,12.3
2022-09-23T03:28:21.130Z,12.2
2022-09-23T03:29:20.950Z,12.4
2022-09-23T03:30:21.188Z,12.2
2022-09-23T03:31:21.398Z,12.3
2022-09-23T03:32:20.950Z,12.3
2022-09-23T03:33:20.962Z,12.2
2022-09-23T03:34:21.158Z,12.1
2022-09-23T03:35:20.951Z,12.2
2022-09-23T03:36:21.255Z,12
2022-09-23T03:37:20.969Z,12.1
2022-09-23T03:38:21.005Z,12.1
2022-09-23T03:39:20.961Z,12.3
2022-09-23T03:40:21.045Z,12.1
2022-09-23T03:41:21.401Z,12.1
2022-09-23T03:43:20.972Z,12
2022-09-23T03:44:21.188Z,11.8
2022-09-23T03:45:21.974Z,12
2022-09-23T03:47:21.609Z,12.2
2022-09-23T03:48:20.954Z,12.2
2022-09-23T03:49:20.954Z,12.1
2022-09-23T03:50:21.113Z,12.1
2022-09-23T03:51:21.436Z,12
2022-09-23T03:52:20.960Z,11.8
2022-09-23T03:53:21.521Z,11.9
2022-09-23T03:54:21.681Z,11.8
2022-09-23T03:56:21.526Z,11.8
2022-09-23T03:57:24.504Z,11.7
2022-09-23T03:58:24.497Z,11.8
2022-09-23T03:59:24.523Z,11.7
2022-09-23T04:00:24.510Z,12
2022-09-23T04:01:24.557Z,12
2022-09-23T04:04:24.513Z,11.8
2022-09-23T04:05:24.507Z,11.9
2022-09-23T04:07:24.524Z,11.8
2022-09-23T04:08:24.502Z,11.9
2022-09-23T04:09:24.503Z,12
2022-09-23T04:10:24.504Z,12
2022-09-23T04:12:24.509Z,12
2022-09-23T04:33:19.801Z,11.7
2022-09-23T04:35:48.055Z,11.8
2022-09-23T04:37:02.171Z,11.7
2022-09-23T04:41:21.616Z,11.6
2022-09-23T04:43:13.614Z,11.6
2022-09-23T04:50:00.471Z,11.3
2022-09-23T04:53:41.121Z,11.6
2022-09-23T04:54:02.812Z,11.5
2022-09-23T04:54:30.771Z,11.6
2022-09-23T04:55:20.963Z,11.6
2022-09-23T04:58:22.017Z,11.7
2022-09-23T04:59:21.658Z,11.6
2022-09-23T05:00:20.960Z,11.6
2022-09-23T05:01:21.508Z,11.6
2022-09-23T05:03:21.202Z,11.5
2022-09-23T05:04:21.187Z,11.4
2022-09-23T05:05:21.634Z,11.5
2022-09-23T05:06:21.068Z,11.4
2022-09-23T05:07:20.958Z,11.5
2022-09-23T05:08:21.171Z,11.5
2022-09-23T05:09:21.644Z,11.5
2022-09-23T05:10:20.964Z,11.5
2022-09-23T05:11:20.966Z,11.3
2022-09-23T05:12:21.508Z,11.2
2022-09-23T05:13:20.955Z,11.4
2022-09-23T05:14:21.284Z,11.3
2022-09-23T05:15:20.959Z,11.5
2022-09-23T05:16:21.001Z,11.4
2022-09-23T05:18:21.395Z,11.5
2022-09-23T05:19:21.833Z,11.5
2022-09-23T05:20:21.711Z,11.4
2022-09-23T05:21:20.984Z,11.5
2022-09-23T05:22:20.969Z,11.3
2022-09-23T05:23:20.984Z,11.3
2022-09-23T05:24:21.696Z,11.4
2022-09-23T05:25:21.471Z,11.5
2022-09-23T05:26:20.958Z,11.6
2022-09-23T05:27:20.951Z,11.4
2022-09-23T05:28:21.009Z,11.4
2022-09-23T05:29:21.167Z,11.5
2022-09-23T05:30:21.572Z,11.6
2022-09-23T05:31:21.350Z,11.6
2022-09-23T05:32:21.432Z,11.4
2022-09-23T05:33:21.356Z,11.6
2022-09-23T05:34:20.964Z,11.6
2022-09-23T05:35:21.518Z,11.7
2022-09-23T05:36:21.459Z,11.6
2022-09-23T05:37:21.667Z,11.6
2022-09-23T05:38:20.971Z,11.6
2022-09-23T05:39:21.394Z,11.6
2022-09-23T05:41:21.662Z,11.6
2022-09-23T05:42:21.138Z,11.5
2022-09-23T05:43:24.509Z,11.4
2022-09-23T05:45:26.805Z,11.5
2022-09-23T05:46:24.568Z,11.4
2022-09-23T05:47:24.512Z,11.5
2022-09-23T05:50:24.510Z,11.2
2022-09-23T05:51:27.603Z,11.4
2022-09-23T05:52:24.511Z,11.5
2022-09-23T05:53:24.517Z,11.3
2022-09-23T05:58:24.518Z,11.6
2022-09-23T05:59:24.609Z,11.5
2022-09-23T06:19:19.816Z,12.1
2022-09-23T06:23:02.931Z,12.3
2022-09-23T06:29:12.809Z,12.7
2022-09-23T06:36:00.506Z,13.1
2022-09-23T06:38:13.206Z,13.9
2022-09-23T06:38:20.214Z,13.6
2022-09-23T06:38:41.725Z,13.2
2022-09-23T06:39:02.235Z,12.3
2022-09-23T06:40:21.684Z,14.5
2022-09-23T06:42:21.601Z,14.8
2022-09-23T06:43:20.982Z,15
2022-09-23T06:44:21.269Z,15.3
2022-09-23T06:45:20.974Z,15.4
2022-09-23T06:46:21.683Z,15.6
2022-09-23T06:47:20.972Z,15.8
2022-09-23T06:48:21.394Z,16
2022-09-23T06:49:21.601Z,16.1
2022-09-23T06:51:22.202Z,16.3
2022-09-23T06:52:20.984Z,16.4
2022-09-23T06:53:21.036Z,16.5
2022-09-23T06:54:21.765Z,16.6
2022-09-23T06:55:21.475Z,16.8
2022-09-23T06:56:21.735Z,16.9
2022-09-23T06:57:21.325Z,16.9
2022-09-23T06:58:21.125Z,16.9
2022-09-23T06:59:21.008Z,17
2022-09-23T07:00:20.989Z,17
2022-09-23T07:01:21.068Z,16.7
2022-09-23T07:02:21.154Z,16.7
2022-09-23T07:03:21.850Z,16.6
2022-09-23T07:04:20.981Z,16.7
2022-09-23T07:05:21.632Z,16.8
2022-09-23T07:06:21.127Z,16.8
2022-09-23T07:07:20.978Z,16.8
2022-09-23T07:08:21.766Z,16.4
2022-09-23T07:09:21.146Z,16.3
2022-09-23T07:10:20.986Z,16
2022-09-23T07:12:21.146Z,16
2022-09-23T07:13:21.590Z,16
2022-09-23T07:14:20.985Z,15.9
2022-09-23T07:15:21.474Z,15.5
2022-09-23T07:16:21.086Z,15.5
2022-09-23T07:17:21.004Z,15.5
2022-09-23T07:18:21.364Z,15.4
2022-09-23T07:19:20.982Z,15.4
2022-09-23T07:20:24.599Z,15.2
2022-09-23T07:21:24.537Z,15.3
2022-09-23T07:22:24.520Z,15.2
2022-09-23T07:24:25.091Z,15.3
2022-09-23T07:25:24.537Z,15.2
2022-09-23T07:26:24.541Z,15.3
2022-09-23T07:27:24.526Z,15.3
2022-09-23T07:28:24.585Z,15.4
2022-09-23T07:30:25.639Z,15.7
2022-09-23T07:32:24.576Z,15.5
2022-09-23T07:33:31.738Z,15.4
2022-09-23T07:43:21.516Z,15.7
2022-09-23T07:45:21.508Z,15.7
2022-09-23T07:46:21.053Z,15.7
2022-09-23T07:47:20.984Z,15.8
2022-09-23T07:48:21.278Z,15.8
2022-09-23T07:49:21.448Z,15.7
2022-09-23T07:50:21.399Z,15.8
2022-09-23T07:51:20.995Z,15.8
2022-09-23T07:52:20.992Z,15.9
2022-09-23T07:54:21.762Z,15.9
2022-09-23T07:55:21.894Z,16
2022-09-23T07:56:21.198Z,15.9
2022-09-23T07:58:20.992Z,15.8
2022-09-23T07:59:21.719Z,15.8
2022-09-23T08:00:21.114Z,15.8
2022-09-23T08:01:21.689Z,15.7
2022-09-23T08:02:21.465Z,15.7
2022-09-23T08:03:20.997Z,15.7
2022-09-23T08:04:21.425Z,15.7
2022-09-23T08:05:21.472Z,15.8
2022-09-23T08:06:21.559Z,15.7
2022-09-23T08:07:21.799Z,15.7
2022-09-23T08:08:21.314Z,15.8
2022-09-23T08:09:21.548Z,15.6
2022-09-23T08:11:21.472Z,15.4
2022-09-23T08:12:21.309Z,15.5
2022-09-23T08:13:21.424Z,15.6
2022-09-23T08:15:21.002Z,15.5
2022-09-23T08:16:21.062Z,15.5
2022-09-23T08:17:21.002Z,15.6
2022-09-23T08:19:21.005Z,15.7
2022-09-23T08:21:21.490Z,15.6
2022-09-23T08:22:21.571Z,15.7
2022-09-23T08:23:21.589Z,15.7
2022-09-23T08:24:21.702Z,15.8
2022-09-23T08:25:22.647Z,15.6
2022-09-23T08:26:22.479Z,15.6
2022-09-23T08:27:20.999Z,15.8
2022-09-23T08:28:21.002Z,15.6
2022-09-23T08:30:24.548Z,15.7
2022-09-23T08:31:24.591Z,15.7
2022-09-23T08:33:24.546Z,15.8
2022-09-23T08:34:24.550Z,15.8
2022-09-23T08:36:24.548Z,15.7
2022-09-23T08:38:24.552Z,15.9
2022-09-23T08:39:24.549Z,15.7
2022-09-23T08:40:24.576Z,15.9
2022-09-23T08:41:24.552Z,15.8
2022-09-23T08:42:24.554Z,16
2022-09-23T08:44:24.555Z,15.8
2022-09-23T08:46:24.704Z,16.1
2022-09-23T09:06:19.856Z,16.2
2022-09-23T09:07:38.134Z,16.2
2022-09-23T09:10:02.219Z,16.1
2022-09-23T09:14:21.656Z,16
2022-09-23T09:15:35.561Z,16.1
2022-09-23T09:16:10.366Z,16.2
2022-09-23T09:17:21.314Z,16.1
2022-09-23T09:18:21.004Z,16.1
2022-09-23T09:20:21.015Z,16.1
2022-09-23T09:21:21.845Z,16.3
2022-09-23T09:22:21.473Z,16.3
2022-09-23T09:23:21.001Z,16.4
2022-09-23T09:24:21.009Z,16.5
2022-09-23T09:25:21.021Z,16.5
2022-09-23T09:26:21.008Z,16.5
2022-09-23T09:27:21.100Z,16.5
2022-09-23T09:29:35.068Z,16.5
2022-09-23T09:31:21.073Z,16.6
2022-09-23T09:32:21.070Z,16.6
2022-09-23T09:33:21.662Z,16.7
2022-09-23T09:34:21.238Z,16.8
2022-09-23T09:35:21.010Z,16.8
2022-09-23T09:36:21.224Z,16.8
2022-09-23T09:37:21.349Z,16.8
2022-09-23T09:38:21.031Z,16.7
2022-09-23T09:39:25.531Z,16.8
2022-09-23T09:40:21.524Z,16.9
2022-09-23T09:41:21.352Z,16.8
2022-09-23T09:42:21.015Z,16.7
2022-09-23T09:43:21.009Z,16.6
2022-09-23T09:44:21.475Z,16.6
2022-09-23T09:46:21.058Z,16.7
2022-09-23T09:47:21.288Z,16.7
2022-09-23T09:48:21.272Z,16.7
2022-09-23T09:50:21.014Z,16.9
2022-09-23T09:51:21.012Z,16.9
2022-09-23T09:52:21.015Z,16.9
2022-09-23T09:53:20.961Z,16.9
2022-09-23T09:54:21.294Z,16.9
2022-09-23T09:55:21.576Z,17
2022-09-23T09:56:21.169Z,17
2022-09-23T09:57:20.957Z,17.2
2022-09-23T09:58:21.550Z,17.2
2022-09-23T09:59:21.435Z,17.2
2022-09-23T10:00:24.565Z,17.3
2022-09-23T10:01:24.578Z,17.3
2022-09-23T10:02:24.515Z,17.2
2022-09-23T10:03:24.506Z,17.1
2022-09-23T10:04:24.547Z,17.1
2022-09-23T10:05:24.505Z,17.2
2022-09-23T10:06:24.529Z,17.2
2022-09-23T10:07:24.508Z,17.2
2022-09-23T10:09:24.514Z,17.4
2022-09-23T10:10:33.262Z,17.3
2022-09-23T10:13:24.511Z,17.3
2022-09-23T10:14:24.506Z,17.5
2022-09-23T10:15:32.857Z,17.6
2022-09-23T10:16:32.969Z,17.5
2022-09-23T10:18:32.833Z,17.7
2022-09-23T10:19:32.830Z,17.8
2022-09-23T10:20:32.835Z,17.8
2022-09-23T10:21:32.840Z,17.8
2022-09-23T10:22:20.963Z,17.8
2022-09-23T10:23:20.955Z,17.7
2022-09-23T10:25:21.411Z,17.9
2022-09-23T10:26:20.958Z,18
2022-09-23T10:27:21.263Z,18
2022-09-23T10:28:21.624Z,18
2022-09-23T10:29:20.976Z,18.1
2022-09-23T10:30:21.438Z,18.2
2022-09-23T10:31:20.969Z,18.2
2022-09-23T10:32:20.966Z,18.2
2022-09-23T10:33:20.974Z,18.2
2022-09-23T10:34:21.858Z,18.1
2022-09-23T10:35:21.739Z,18.3
2022-09-23T10:36:21.384Z,18.3
2022-09-23T10:37:20.969Z,18.3
2022-09-23T10:38:21.000Z,18.2
2022-09-23T10:39:20.984Z,18.3
2022-09-23T10:40:21.025Z,18.1
2022-09-23T10:41:20.984Z,18
2022-09-23T10:43:21.026Z,18
2022-09-23T10:44:21.503Z,18
2022-09-23T10:45:20.973Z,18.2
2022-09-23T10:46:21.460Z,18.2
2022-09-23T10:47:20.978Z,18.1
2022-09-23T10:48:20.976Z,18.2
2022-09-23T10:49:21.086Z,18.2
2022-09-23T10:51:26.008Z,18.4
2022-09-23T10:53:20.996Z,18.4
2022-09-23T10:54:20.983Z,18.4
2022-09-23T10:55:20.990Z,18.5
2022-09-23T10:56:20.990Z,18.7
2022-09-23T10:57:21.491Z,18.7
2022-09-23T10:58:20.985Z,18.6
2022-09-23T10:59:20.987Z,18.7
2022-09-23T11:00:21.498Z,18.8
2022-09-23T11:03:21.085Z,18.7
2022-09-23T11:05:21.248Z,18.6
2022-09-23T11:06:21.530Z,18.7
2022-09-23T11:07:21.190Z,18.8
2022-09-23T11:08:20.993Z,18.7
2022-09-23T11:10:44.846Z,18.8
2022-09-23T11:11:24.608Z,18.8
2022-09-23T11:13:24.550Z,19
2022-09-23T11:16:24.657Z,19
2022-09-23T11:18:24.564Z,19
2022-09-23T11:19:24.547Z,19
2022-09-23T11:21:24.543Z,18.8
2022-09-23T11:23:24.552Z,18.6
2022-09-23T11:24:24.642Z,18.7
2022-09-23T11:25:32.878Z,18.7
2022-09-23T11:26:33.504Z,18.8
2022-09-23T11:27:32.872Z,18.9
2022-09-23T11:30:32.935Z,19.1
2022-09-23T11:32:32.996Z,19.4
2022-09-23T11:34:32.862Z,19.2
2022-09-23T11:35:32.888Z,19.4
2022-09-23T11:36:32.875Z,19.4
2022-09-23T11:37:32.887Z,19.4
2022-09-23T11:38:32.885Z,19.6
2022-09-23T11:39:32.908Z,19.7
2022-09-23T11:40:33.125Z,19.7
2022-09-23T11:41:51.609Z,19.8
2022-09-23T11:44:19.872Z,19.9
2022-09-23T11:48:02.260Z,20.2
2022-09-23T11:49:00.990Z,20.1
2022-09-23T11:49:21.106Z,20.2
2022-09-23T11:50:21.640Z,20
2022-09-23T11:51:21.024Z,20
2022-09-23T11:52:21.666Z,20.1
2022-09-23T11:54:21.501Z,20
2022-09-23T11:55:23.221Z,20.2
2022-09-23T11:56:32.830Z,20.2
2022-09-23T11:58:25.958Z,20.2
2022-09-23T11:59:30.903Z,20
2022-09-23T12:00:21.023Z,20
2022-09-23T12:01:30.151Z,20
2022-09-23T12:02:23.757Z,20
2022-09-23T12:03:22.509Z,20
2022-09-23T12:05:21.216Z,20.1
2022-09-23T12:07:21.491Z,19.8
2022-09-23T12:08:21.975Z,19.9
2022-09-23T12:09:35.776Z,19.8
2022-09-23T12:12:26.325Z,20
2022-09-23T12:14:21.030Z,20.1
2022-09-23T12:15:21.623Z,20.2
2022-09-23T12:16:21.096Z,20
2022-09-23T12:17:21.363Z,20.1
2022-09-23T12:19:21.031Z,20.2
2022-09-23T12:20:21.478Z,20.3
2022-09-23T12:21:45.809Z,20.4
2022-09-23T12:22:21.366Z,20.1
2022-09-23T12:23:21.024Z,20.2
2022-09-23T12:24:21.021Z,20.3
2022-09-23T12:26:21.514Z,20.1
2022-09-23T12:27:21.021Z,20.1
2022-09-23T12:28:21.025Z,20
2022-09-23T12:29:21.120Z,19.9
2022-09-23T12:30:21.825Z,19.9
2022-09-23T12:31:21.881Z,19.9
2022-09-23T12:32:21.663Z,19.8
2022-09-23T12:33:21.959Z,19.9
2022-09-23T12:34:21.080Z,20
2022-09-23T12:37:24.577Z,20.2
2022-09-23T12:40:25.283Z,20.4
2022-09-23T12:41:24.590Z,20.4
2022-09-23T12:42:28.879Z,20.3
2022-09-23T12:44:24.583Z,20.2
2022-09-23T12:45:24.581Z,20
2022-09-23T12:46:24.685Z,20.1
2022-09-23T12:49:24.620Z,20.1
2022-09-23T12:50:24.822Z,20
2022-09-23T13:00:34.389Z,19.7
2022-09-23T13:01:33.046Z,19.7
2022-09-23T13:10:21.111Z,19.8
2022-09-23T13:11:21.640Z,19.8
2022-09-23T13:12:21.058Z,19.8
2022-09-23T13:13:21.657Z,19.7
2022-09-23T13:14:26.593Z,19.8
2022-09-23T13:15:21.043Z,19.9
2022-09-23T13:16:21.329Z,19.8
2022-09-23T13:17:21.177Z,19.6
2022-09-23T13:18:21.044Z,19.7
2022-09-23T13:19:21.060Z,19.7
2022-09-23T13:20:21.889Z,19.5
2022-09-23T13:22:21.487Z,19.7
2022-09-23T13:23:21.066Z,19.7
2022-09-23T13:25:21.525Z,19.5
2022-09-23T13:26:21.703Z,19.5
2022-09-23T13:27:21.789Z,19.4
2022-09-23T13:29:21.053Z,19.3
2022-09-23T13:30:25.966Z,19.4
2022-09-23T13:31:21.348Z,19.5
2022-09-23T13:32:21.305Z,19.4
2022-09-23T13:33:21.937Z,19.4
2022-09-23T13:35:21.121Z,19.3
2022-09-23T13:36:21.388Z,19.3
2022-09-23T13:37:22.646Z,19.3
2022-09-23T13:38:21.524Z,19.3
2022-09-23T13:39:21.311Z,19.4
2022-09-23T13:40:21.360Z,19.5
2022-09-23T13:41:21.108Z,19.4
2022-09-23T13:42:21.074Z,19.4
2022-09-23T13:43:21.056Z,19.2
2022-09-23T13:44:21.068Z,19.2
2022-09-23T13:46:21.227Z,19.3
2022-09-23T13:47:21.913Z,19.4
2022-09-23T13:48:21.999Z,19.3
2022-09-23T13:49:21.060Z,19.3
2022-09-23T13:50:21.157Z,19.1
2022-09-23T13:51:21.557Z,19.3
2022-09-23T13:52:21.725Z,19.2
2022-09-23T13:54:21.169Z,19.3
2022-09-23T13:55:21.072Z,19.3
2022-09-23T13:56:24.617Z,19.2
2022-09-23T13:57:24.618Z,19.3
2022-09-23T13:58:24.624Z,19.3
2022-09-23T13:59:24.620Z,19.3
2022-09-23T14:02:24.659Z,19.3
2022-09-23T14:03:24.622Z,19.2
2022-09-23T14:04:24.629Z,19.3
2022-09-23T14:05:24.622Z,19.2
2022-09-23T14:06:24.639Z,19.2
2022-09-23T14:07:24.626Z,19.2
2022-09-23T14:10:24.617Z,19.5
2022-09-23T14:11:24.633Z,19.4
2022-09-23T14:31:33.459Z,19
2022-09-23T14:32:21.567Z,19
2022-09-23T14:33:21.707Z,18.9
2022-09-23T14:34:21.408Z,18.9
2022-09-23T14:36:21.699Z,19
2022-09-23T14:37:21.717Z,18.9
2022-09-23T14:38:21.120Z,19
2022-09-23T14:39:21.071Z,19
2022-09-23T14:40:21.174Z,19
2022-09-23T14:41:21.081Z,19
2022-09-23T14:43:21.723Z,18.8
2022-09-23T14:44:21.510Z,18.9
2022-09-23T14:45:21.080Z,19
2022-09-23T14:46:21.155Z,18.9
2022-09-23T14:47:21.608Z,18.8
2022-09-23T14:48:21.087Z,18.8
2022-09-23T14:49:21.504Z,18.8
2022-09-23T14:50:21.370Z,18.7
2022-09-23T14:51:21.264Z,18.6
2022-09-23T14:52:21.122Z,18.6
2022-09-23T14:53:21.076Z,18.6
2022-09-23T14:54:21.452Z,18.6
2022-09-23T14:56:21.086Z,18.7
2022-09-23T14:57:21.080Z,18.7
2022-09-23T14:58:21.098Z,18.8
2022-09-23T14:59:21.752Z,18.7
2022-09-23T15:00:21.598Z,18.7
2022-09-23T15:02:21.249Z,18.6
2022-09-23T15:04:21.884Z,18.5
2022-09-23T15:05:21.105Z,18.5
2022-09-23T15:06:21.219Z,18.5
2022-09-23T15:07:21.752Z,18.5
2022-09-23T15:08:21.825Z,18.6
2022-09-23T15:09:21.098Z,18.6
2022-09-23T15:10:21.663Z,18.7
2022-09-23T15:11:21.481Z,18.7
2022-09-23T15:12:21.102Z,18.6
2022-09-23T15:13:21.097Z,18.7
2022-09-23T15:14:37.324Z,18.7
2022-09-23T15:15:21.091Z,18.6
2022-09-23T15:16:21.651Z,18.6
2022-09-23T15:17:21.096Z,18.7
2022-09-23T15:18:24.642Z,18.6
2022-09-23T15:19:24.639Z,18.6
2022-09-23T15:20:24.654Z,18.7
2022-09-23T15:21:24.642Z,18.7
2022-09-23T15:23:27.779Z,18.7
2022-09-23T15:24:24.649Z,18.6
2022-09-23T15:25:24.678Z,18.6
2022-09-23T15:26:24.647Z,18.6
2022-09-23T15:27:24.700Z,18.7
2022-09-23T15:28:24.647Z,18.7
2022-09-23T15:29:24.649Z,18.7
2022-09-23T15:31:24.717Z,18.6
2022-09-23T15:32:24.650Z,18.7
2022-09-23T15:33:24.654Z,18.6
2022-09-23T15:53:19.964Z,18.5
2022-09-23T15:57:02.331Z,18.4
2022-09-23T16:03:12.652Z,18.5
2022-09-23T16:03:40.717Z,18.6
2022-09-23T16:04:21.117Z,18.4
2022-09-23T16:05:21.125Z,18.5
2022-09-23T16:06:21.986Z,18.4
2022-09-23T16:07:21.112Z,18.4
2022-09-23T16:08:21.116Z,18.5
2022-09-23T16:09:21.160Z,18.6
2022-09-23T16:10:21.114Z,18.6
2022-09-23T16:11:22.682Z,18.5
2022-09-23T16:12:21.898Z,18.5
2022-09-23T16:13:21.642Z,18.5
2022-09-23T16:14:21.307Z,18.5
2022-09-23T16:16:21.362Z,18.2
2022-09-23T16:17:21.538Z,18.3
2022-09-23T16:18:21.130Z,18.4
2022-09-23T16:19:21.582Z,18.5
2022-09-23T16:20:21.125Z,18.5
2022-09-23T16:21:21.419Z,18.3
2022-09-23T16:22:22.034Z,18.2
2022-09-23T16:23:21.328Z,18.3
2022-09-23T16:24:25.951Z,18
2022-09-23T16:25:21.128Z,18.3
2022-09-23T16:26:21.345Z,18.4
2022-09-23T16:27:21.736Z,18.3
2022-09-23T16:28:21.216Z,18.4
2022-09-23T16:29:21.134Z,18.3
2022-09-23T16:30:21.749Z,18.3
2022-09-23T16:31:21.174Z,18.4
2022-09-23T16:32:22.316Z,18.5
2022-09-23T16:33:21.122Z,18.5
2022-09-23T16:34:22.026Z,18.5
2022-09-23T16:35:21.130Z,18.5
2022-09-23T16:37:21.560Z,18.4
2022-09-23T16:38:21.714Z,18.3
2022-09-23T16:39:21.127Z,18.2
2022-09-23T16:40:21.232Z,18.5
2022-09-23T16:41:21.641Z,18.3
2022-09-23T16:42:21.120Z,18.4
2022-09-23T16:43:21.128Z,18.4
2022-09-23T16:45:21.592Z,18.4
2022-09-23T16:46:21.336Z,18.6
2022-09-23T16:47:24.672Z,18.5
2022-09-23T16:48:24.674Z,18.6
2022-09-23T16:49:24.679Z,18.3
2022-09-23T16:51:24.676Z,18
2022-09-23T16:53:24.682Z,17.9
2022-09-23T16:54:24.675Z,18.1
2022-09-23T16:56:28.436Z,18.3
2022-09-23T16:58:24.707Z,18.5
2022-09-23T16:59:24.682Z,18.5
2022-09-23T17:00:24.685Z,18.6
2022-09-23T17:07:26.066Z,18.5
2022-09-23T17:14:21.258Z,18.3
2022-09-23T17:15:21.156Z,18.2
2022-09-23T17:18:21.143Z,18.1
2022-09-23T17:19:21.392Z,18
2022-09-23T17:20:21.239Z,18
2022-09-23T17:21:21.741Z,18
2022-09-23T17:22:21.145Z,18.2
2022-09-23T17:23:22.542Z,18
2022-09-23T17:24:21.726Z,17.9
2022-09-23T17:25:21.403Z,18
2022-09-23T17:26:21.770Z,17.7
2022-09-23T17:27:21.139Z,17.8
2022-09-23T17:28:21.799Z,17.7
2022-09-23T17:29:21.148Z,17.8
2022-09-23T17:30:21.390Z,17.8
2022-09-23T17:31:21.714Z,17.8
2022-09-23T17:32:21.890Z,17.7
2022-09-23T17:33:21.145Z,17.8
2022-09-23T17:34:21.973Z,17.7
2022-09-23T17:35:21.283Z,17.7
2022-09-23T17:36:21.641Z,17.5
2022-09-23T17:37:21.248Z,17.8
2022-09-23T17:38:21.147Z,17.9
2022-09-23T17:40:21.150Z,18
2022-09-23T17:41:21.218Z,17.8
2022-09-23T17:42:21.148Z,17.9
2022-09-23T17:43:21.802Z,17.8
2022-09-23T17:44:21.143Z,17.9
2022-09-23T17:45:21.900Z,18
2022-09-23T17:46:21.428Z,18
2022-09-23T17:47:21.648Z,18.1
2022-09-23T17:48:21.325Z,17.9
2022-09-23T17:49:21.153Z,17.9
2022-09-23T17:50:21.932Z,18
2022-09-23T17:51:21.150Z,17.9
2022-09-23T17:52:21.147Z,18.1
2022-09-23T17:53:21.716Z,18.1
2022-09-23T17:54:21.190Z,17.9
2022-09-23T17:55:21.525Z,18
2022-09-23T17:57:21.144Z,17.8
2022-09-23T17:58:21.149Z,18
2022-09-23T17:59:21.145Z,18
2022-09-23T18:01:24.833Z,18
2022-09-23T18:02:24.740Z,18
2022-09-23T18:03:24.697Z,17.7
2022-09-23T18:04:24.699Z,17.7
2022-09-23T18:05:24.720Z,17.7
2022-09-23T18:07:24.699Z,18
2022-09-23T18:09:24.701Z,17.7
2022-09-23T18:10:24.707Z,17.6
2022-09-23T18:11:24.713Z,17.7
2022-09-23T18:12:24.727Z,18
2022-09-23T18:13:24.705Z,17.9
2022-09-23T18:14:24.701Z,17.8
2022-09-23T18:15:24.714Z,17.9
2022-09-23T18:36:21.165Z,17.7
2022-09-23T18:37:21.895Z,17.6
2022-09-23T18:38:21.300Z,17.8
2022-09-23T18:39:21.458Z,17.7
2022-09-23T18:40:21.205Z,17.8
2022-09-23T18:41:21.163Z,17.7
2022-09-23T18:42:21.186Z,17.7
2022-09-23T18:43:24.545Z,17.6
2022-09-23T18:44:21.171Z,17.4
2022-09-23T18:45:21.313Z,17.5
2022-09-23T18:46:21.531Z,17.4
2022-09-23T18:47:21.176Z,17.5
2022-09-23T18:49:21.711Z,17.6
2022-09-23T18:50:22.033Z,17.3
2022-09-23T18:51:21.542Z,17.3
2022-09-23T18:52:21.294Z,17.3
2022-09-23T18:54:22.117Z,17.1
2022-09-23T18:55:21.175Z,17.1
2022-09-23T18:57:21.283Z,17.2
2022-09-23T18:58:21.200Z,17
2022-09-23T18:59:21.452Z,17.2
2022-09-23T19:00:21.762Z,17.3
2022-09-23T19:01:21.454Z,17.5
2022-09-23T19:02:21.165Z,17.1
2022-09-23T19:03:21.183Z,17.3
2022-09-23T19:04:21.169Z,17.4
2022-09-23T19:05:21.172Z,17.4
2022-09-23T19:06:21.407Z,17.5
2022-09-23T19:07:21.189Z,17.2
2022-09-23T19:09:21.850Z,17.4
2022-09-23T19:10:21.171Z,17.6
2022-09-23T19:11:21.169Z,17.4
2022-09-23T19:12:21.549Z,17.2
2022-09-23T19:13:21.241Z,17.3
2022-09-23T19:15:21.177Z,17.5
2022-09-23T19:16:21.223Z,17.3
2022-09-23T19:18:21.979Z,17
2022-09-23T19:19:21.174Z,17
2022-09-23T19:20:21.731Z,17.1
2022-09-23T19:21:21.411Z,17.1
2022-09-23T19:23:24.724Z,17.3
2022-09-23T19:24:24.722Z,17.2
2022-09-23T19:27:24.723Z,17
2022-09-23T19:28:24.719Z,17.2
2022-09-23T19:29:24.750Z,17.2
2022-09-23T19:31:24.822Z,17.2
2022-09-23T19:32:24.763Z,17.1
2022-09-23T19:33:24.728Z,17.2
2022-09-23T19:36:24.712Z,17
2022-09-23T19:37:24.761Z,17.1
2022-09-23T19:53:24.845Z,17.2
2022-09-23T19:55:21.298Z,17.2
2022-09-23T19:56:21.269Z,17.3
2022-09-23T19:57:21.214Z,17.2
2022-09-23T19:58:22.024Z,17.2
2022-09-23T20:00:21.192Z,17.1
2022-09-23T20:01:22.936Z,17
2022-09-23T20:02:21.307Z,17
2022-09-23T20:03:21.826Z,17.3
2022-09-23T20:04:21.626Z,17.3
2022-09-23T20:05:21.188Z,17.4
2022-09-23T20:06:21.191Z,17.4
2022-09-23T20:07:21.195Z,17.5
2022-09-23T20:08:21.489Z,17.4
2022-09-23T20:09:21.218Z,17.5
2022-09-23T20:10:21.521Z,17.4
2022-09-23T20:11:26.059Z,17.3
2022-09-23T20:12:21.463Z,17.2
2022-09-23T20:13:21.546Z,17.2
2022-09-23T20:14:21.187Z,17.4
2022-09-23T20:15:21.215Z,17.3
2022-09-23T20:16:21.379Z,17.5
2022-09-23T20:17:21.685Z,17.4
2022-09-23T20:18:21.186Z,17.3
2022-09-23T20:21:21.369Z,17.3
2022-09-23T20:22:21.199Z,17.3
2022-09-23T20:23:21.949Z,17.2
2022-09-23T20:24:21.963Z,17.3
2022-09-23T20:25:21.192Z,17
2022-09-23T20:26:21.886Z,17.3
2022-09-23T20:27:21.339Z,17.3